Time;durP1;ratioP1;P1;durP2;ratioP2;P2;SDS_P1;SDS_P2;PMS_P1;PMS_P2;Temp;Humidity;BMP_temperature;BMP_pressure;BME280_temperature;BME280_humidity;BME280_pressure;Samples;Min_cycle;Max_cycle;Signal;HPM_P1;HPM_P2
2021/05/11 00:00:36;;;;;;;8.45;4.28;;;;;;;9.01;67.30;101034.91;5013069;28;20476;-72
2021/05/11 00:03:02;;;;;;;7.38;4.47;;;;;;;8.92;67.57;101030.97;5015356;28;20033;-74
2021/05/11 00:05:29;;;;;;;7.72;3.90;;;;;;;8.82;68.25;101024.44;5013214;28;20030;-74
2021/05/11 00:07:55;;;;;;;6.65;4.10;;;;;;;8.74;68.25;101027.50;5013314;28;20026;-71
2021/05/11 00:10:22;;;;;;;9.38;4.20;;;;;;;8.78;67.80;101009.66;5012900;28;20033;-70
2021/05/11 00:12:47;;;;;;;6.68;4.30;;;;;;;8.81;67.77;101010.69;5013393;28;20033;-72
2021/05/11 00:15:13;;;;;;;6.30;3.83;;;;;;;8.79;68.21;101009.72;5012908;28;20515;-74
2021/05/11 00:17:40;;;;;;;8.35;4.05;;;;;;;8.85;68.40;101017.78;5013078;28;20393;-72
2021/05/11 00:20:06;;;;;;;6.25;3.92;;;;;;;8.83;67.89;101008.19;5012890;28;20038;-72
2021/05/11 00:22:31;;;;;;;7.93;4.40;;;;;;;8.71;68.61;101000.69;5012327;28;20033;-73
2021/05/11 00:24:57;;;;;;;7.20;4.97;;;;;;;8.20;68.83;100921.66;5013000;28;20405;-72
2021/05/11 00:27:22;;;;;;;6.30;4.22;;;;;;;8.75;68.65;101023.25;5027227;28;20045;-75
2021/05/11 00:29:48;;;;;;;7.60;4.65;;;;;;;8.80;68.10;101019.22;5013291;28;20108;-71
2021/05/11 00:32:51;;;;;;;5.95;4.25;;;;;;;8.84;67.98;101015.13;5012806;28;20033;-74
2021/05/11 00:35:16;;;;;;;5.38;3.78;;;;;;;8.71;68.42;101003.28;5012895;28;20034;-74
2021/05/11 00:37:41;;;;;;;9.18;4.53;;;;;;;8.70;68.55;101009.25;5012443;28;20029;-72
2021/05/11 00:40:08;;;;;;;7.68;4.40;;;;;;;8.58;68.49;100996.59;5012793;28;20037;-70
2021/05/11 00:42:34;;;;;;;5.80;4.20;;;;;;;8.61;68.61;100989.06;5011395;28;20036;-71
2021/05/11 00:45:00;;;;;;;7.03;4.53;;;;;;;8.47;68.64;100982.28;5012637;28;20026;-73
2021/05/11 00:47:26;;;;;;;6.90;4.13;;;;;;;8.57;69.07;101010.25;5012261;28;20665;-72
2021/05/11 00:49:52;;;;;;;6.30;4.60;;;;;;;8.46;69.52;101001.97;5012201;28;20040;-74
2021/05/11 00:52:17;;;;;;;6.65;4.90;;;;;;;8.46;69.34;100989.13;5012336;28;20788;-73
2021/05/11 00:54:43;;;;;;;8.00;4.75;;;;;;;8.49;69.03;101001.25;5012405;28;20026;-71
2021/05/11 00:57:10;;;;;;;8.02;4.63;;;;;;;8.18;68.63;100927.53;5012335;28;20057;-76
2021/05/11 00:59:36;;;;;;;6.28;4.55;;;;;;;8.39;68.67;100967.25;5012782;28;20033;-78
2021/05/11 01:02:05;;;;;;;5.70;4.43;;;;;;;8.62;68.07;100988.22;5012731;28;20053;-71
2021/05/11 01:04:31;;;;;;;10.18;4.68;;;;;;;8.40;68.39;100981.03;5027561;28;20034;-74
2021/05/11 01:06:57;;;;;;;5.95;3.97;;;;;;;8.21;68.47;100968.84;5012053;28;20036;-75
2021/05/11 01:09:24;;;;;;;8.82;4.18;;;;;;;7.60;69.21;100898.72;5012394;28;20073;-72
2021/05/11 01:11:50;;;;;;;6.50;3.90;;;;;;;8.01;69.37;100981.50;5012230;28;20034;-70
2021/05/11 01:14:15;;;;;;;6.32;4.43;;;;;;;7.76;69.84;100957.00;5012165;28;20472;-79
2021/05/11 01:16:43;;;;;;;6.82;4.78;;;;;;;7.96;69.35;100967.47;5011411;28;20050;-73
2021/05/11 01:21:51;;;;;;;6.35;4.10;;;;;;;7.88;69.45;100974.78;5011769;28;20113;-70
2021/05/11 01:24:25;;;;;;;7.03;4.43;;;;;;;7.84;69.48;100980.56;5023945;28;20562;-73
2021/05/11 01:51:06;;;;;;;7.22;4.28;;;;;;;8.05;68.65;100932.00;5011621;28;20114;-77
2021/05/11 01:56:24;;;;;;;7.53;4.97;;;;;;;8.22;69.36;100958.66;5011329;28;20041;-72
2021/05/11 02:18:13;;;;;;;6.18;4.40;;;;;;;7.60;71.76;100957.81;5023187;28;20108;-72
2021/05/11 02:23:28;;;;;;;7.30;4.18;;;;;;;7.34;71.90;100963.13;5011008;28;20044;-73
2021/05/11 02:25:54;;;;;;;7.38;5.05;;;;;;;7.28;72.16;100959.41;5010547;28;20499;-71
2021/05/11 02:28:19;;;;;;;7.93;4.32;;;;;;;7.30;71.96;100944.09;5005207;28;20065;-73
2021/05/11 02:30:45;;;;;;;7.60;4.68;;;;;;;7.29;71.72;100938.06;5013355;28;20077;-74
2021/05/11 02:33:11;;;;;;;6.53;4.75;;;;;;;7.31;71.52;100951.00;5011342;28;20030;-75
2021/05/11 02:35:36;;;;;;;9.27;4.22;;;;;;;7.31;71.60;100950.13;5011079;28;20037;-74
2021/05/11 02:38:02;;;;;;;8.50;3.95;;;;;;;7.01;71.31;100893.63;5010758;28;20076;-73
2021/05/11 02:40:27;;;;;;;7.97;4.47;;;;;;;7.22;71.84;100959.06;5010480;28;20044;-70
2021/05/11 02:42:59;;;;;;;7.90;4.47;;;;;;;6.91;71.84;100908.47;5010664;28;20033;-73
2021/05/11 02:45:24;;;;;;;7.95;4.57;;;;;;;7.17;71.39;100957.91;5009453;28;20026;-78
2021/05/11 02:47:51;;;;;;;8.27;4.47;;;;;;;7.21;71.76;100962.41;5014629;28;20084;-79
2021/05/11 02:50:18;;;;;;;9.05;4.60;;;;;;;7.25;71.60;100968.63;5014966;28;20029;-75
2021/05/11 02:52:44;;;;;;;7.55;4.35;;;;;;;7.25;71.32;100974.66;5014617;28;20026;-72
2021/05/11 02:55:10;;;;;;;9.93;4.38;;;;;;;7.13;71.17;100966.22;5014413;28;20030;-74
2021/05/11 02:57:35;;;;;;;9.45;4.20;;;;;;;6.92;72.21;100976.97;5014844;28;20030;-74
2021/05/11 03:00:01;;;;;;;8.23;4.55;;;;;;;7.02;72.01;100970.72;5014565;28;20037;-71
2021/05/11 03:02:28;;;;;;;10.75;5.20;;;;;;;7.17;71.39;100978.44;5014475;28;20099;-75
2021/05/11 03:04:54;;;;;;;13.13;5.07;;;;;;;7.03;71.38;100972.50;5014825;28;20045;-77
2021/05/11 03:07:20;;;;;;;11.97;5.03;;;;;;;7.09;71.83;100970.28;5013379;28;20021;-72
2021/05/11 03:09:45;;;;;;;8.85;4.40;;;;;;;6.90;71.82;100942.66;5014039;28;20633;-71
2021/05/11 03:12:11;;;;;;;7.90;4.80;;;;;;;6.94;72.00;100939.47;5012906;28;20053;-69
2021/05/11 03:14:36;;;;;;;8.65;4.68;;;;;;;7.02;71.73;100947.63;5014797;28;20034;-71
2021/05/11 03:17:02;;;;;;;8.70;4.93;;;;;;;7.00;72.10;100956.03;5014214;28;20171;-70
2021/05/11 03:19:27;;;;;;;11.27;4.78;;;;;;;6.68;72.95;100957.53;5014362;28;20144;-74
2021/05/11 03:21:53;;;;;;;15.43;5.03;;;;;;;6.76;72.93;100962.34;5014018;28;20033;-69
2021/05/11 03:24:18;;;;;;;18.57;4.83;;;;;;;6.54;72.75;100911.44;5012934;28;20072;-74
2021/05/11 03:26:44;;;;;;;10.35;4.85;;;;;;;6.57;73.05;100905.59;5013074;28;20033;-73
2021/05/11 03:29:09;;;;;;;15.15;5.13;;;;;;;7.16;72.54;100957.81;5013747;28;20084;-76
2021/05/11 03:31:35;;;;;;;13.90;5.15;;;;;;;7.28;72.13;100938.00;5013894;28;20037;-73
2021/05/11 03:34:00;;;;;;;13.82;4.90;;;;;;;7.45;71.73;100956.91;5014193;28;20049;-74
2021/05/11 03:36:26;;;;;;;12.70;4.57;;;;;;;7.28;72.61;100961.09;5014059;28;20033;-71
2021/05/11 03:38:53;;;;;;;13.10;5.20;;;;;;;7.23;73.03;100949.69;5013626;28;20121;-71
2021/05/11 03:41:23;;;;;;;10.35;5.15;;;;;;;7.43;72.96;100955.97;5028774;28;20057;-74
2021/05/11 03:44:03;;;;;;;11.75;4.72;;;;;;;7.36;72.32;100912.75;5013724;28;20038;-72
2021/05/11 03:46:29;;;;;;;12.77;4.90;;;;;;;7.64;71.87;100955.41;5013892;28;20022;-73
2021/05/11 03:48:54;;;;;;;18.67;5.88;;;;;;;7.72;71.85;100960.19;5013887;28;20465;-70
2021/05/11 03:51:20;;;;;;;11.15;5.88;;;;;;;7.71;72.45;100960.09;5013609;28;20026;-73
2021/05/11 03:53:45;;;;;;;13.05;5.65;;;;;;;7.56;73.30;100950.75;5013624;28;20393;-74
2021/05/11 03:56:11;;;;;;;14.32;5.47;;;;;;;7.73;73.03;100955.94;5013691;28;20453;-74
2021/05/11 03:58:37;;;;;;;14.80;5.60;;;;;;;7.73;72.89;100935.38;5012737;28;20361;-71
2021/05/11 04:01:02;;;;;;;16.58;5.10;;;;;;;7.78;71.71;100913.38;5012508;28;20125;-75
2021/05/11 04:03:28;;;;;;;14.02;5.68;;;;;;;8.09;71.32;100956.22;5013092;28;20478;-75
2021/05/11 04:05:54;;;;;;;17.35;6.07;;;;;;;8.15;71.35;100959.13;5013111;28;20022;-70
2021/05/11 04:16:26;;;;;;;17.67;5.57;;;;;;;8.45;70.15;100959.00;5010352;28;20537;-77
2021/05/11 04:18:52;;;;;;;12.45;4.93;;;;;;;8.32;69.98;100928.28;5007373;28;20041;-79
2021/05/11 04:21:21;;;;;;;12.65;4.93;;;;;;;8.48;69.74;100951.47;5005511;28;20562;-74
2021/05/11 04:23:47;;;;;;;11.75;5.18;;;;;;;8.57;69.94;100954.53;5008509;28;20113;-78
2021/05/11 04:26:14;;;;;;;12.65;5.70;;;;;;;8.61;69.91;100941.81;5007784;28;20129;-75
2021/05/11 04:28:40;;;;;;;12.23;6.32;;;;;;;8.68;70.02;100944.78;5009603;28;20052;-75
2021/05/11 04:31:07;;;;;;;11.95;5.28;;;;;;;8.49;70.51;100947.22;5009536;28;20029;-77
2021/05/11 04:33:33;;;;;;;9.43;4.68;;;;;;;8.48;70.92;100959.19;5009435;28;20026;-74
2021/05/11 04:35:59;;;;;;;10.50;5.28;;;;;;;8.50;71.57;100952.44;5009240;28;20070;-77
2021/05/11 04:38:24;;;;;;;11.40;5.72;;;;;;;8.40;71.85;100938.16;4990601;28;20029;-76
2021/05/11 04:40:51;;;;;;;14.10;5.68;;;;;;;8.44;72.32;100946.94;5009679;28;20172;-77
2021/05/11 04:43:17;;;;;;;11.75;5.55;;;;;;;8.41;71.34;100928.75;5005950;28;20061;-75
2021/05/11 04:45:42;;;;;;;11.75;5.03;;;;;;;8.65;71.61;100947.22;5010598;28;20077;-74
2021/05/11 04:48:09;;;;;;;11.48;5.70;;;;;;;8.33;73.46;100904.31;5008126;28;20104;-79
2021/05/11 04:50:35;;;;;;;11.68;6.07;;;;;;;8.55;73.29;100950.13;5013058;28;20036;-76
2021/05/11 04:53:01;;;;;;;13.52;6.40;;;;;;;8.28;74.74;100898.91;5013198;28;20464;-80
2021/05/11 04:55:27;;;;;;;13.75;6.00;;;;;;;8.41;73.87;100905.59;5008308;28;20014;-78
2021/05/11 04:57:52;;;;;;;12.63;5.68;;;;;;;8.67;73.76;100945.63;5007105;28;20080;-79
2021/05/11 05:00:18;;;;;;;14.50;6.25;;;;;;;8.30;73.87;100866.47;4991850;28;20022;-78
2021/05/11 05:02:46;;;;;;;14.07;5.90;;;;;;;8.84;74.23;100954.19;5006036;28;20021;-78
2021/05/11 05:05:12;;;;;;;10.73;6.30;;;;;;;8.84;74.73;100958.47;5008514;28;20029;-75
2021/05/11 05:07:39;;;;;;;10.00;5.70;;;;;;;8.99;74.75;100961.81;5012151;28;20030;-77
2021/05/11 05:10:07;;;;;;;11.88;6.15;;;;;;;9.25;74.03;100958.81;5010526;28;20119;-78
2021/05/11 05:12:33;;;;;;;12.15;5.10;;;;;;;9.06;74.70;100925.28;5008194;28;20142;-76
2021/05/11 05:14:59;;;;;;;15.05;5.22;;;;;;;9.20;74.85;100927.66;5012224;28;20034;-75
2021/05/11 05:17:24;;;;;;;11.25;5.20;;;;;;;9.44;75.55;100964.06;5011973;28;20129;-75
2021/05/11 05:19:50;;;;;;;9.68;4.65;;;;;;;9.57;74.82;100964.66;5010579;28;20050;-76
2021/05/11 05:22:16;;;;;;;12.38;5.38;;;;;;;9.75;75.88;100955.25;5009613;28;20108;-80
2021/05/11 05:25:11;;;;;;;20.50;6.03;;;;;;;9.66;72.96;100913.56;5012108;28;20029;-77
2021/05/11 05:27:39;;;;;;;23.35;5.65;;;;;;;10.12;71.93;100951.84;5010879;28;20038;-76
2021/05/11 05:30:06;;;;;;;9.70;4.80;;;;;;;10.19;71.85;100941.00;5010674;28;20026;-74
2021/05/11 05:32:31;;;;;;;14.32;4.88;;;;;;;10.24;71.97;100942.91;5007940;28;20026;-76
2021/05/11 05:34:57;;;;;;;14.32;5.65;;;;;;;10.35;72.27;100955.50;5008111;28;21009;-77
2021/05/11 05:37:22;;;;;;;23.92;6.25;;;;;;;10.32;72.11;100942.44;5007885;28;20025;-76
2021/05/11 05:39:52;;;;;;;16.13;4.82;;;;;;;10.59;72.03;100946.22;5011220;28;20037;-77
2021/05/11 05:42:19;;;;;;;13.13;4.65;;;;;;;10.49;72.39;100927.75;5012066;28;20465;-77
2021/05/11 05:44:45;;;;;;;18.13;5.20;;;;;;;10.68;73.04;100954.38;5013620;28;20037;-78
2021/05/11 05:47:10;;;;;;;14.57;5.20;;;;;;;10.69;71.57;100896.72;5013635;28;20037;-77
2021/05/11 05:49:45;;;;;;;20.92;4.90;;;;;;;10.94;70.81;100933.94;5011456;28;20033;-76
2021/05/11 05:52:17;;;;;;;15.05;4.97;;;;;;;11.10;71.77;100928.66;5026442;28;20096;-77
2021/05/11 05:54:44;;;;;;;12.20;3.90;;;;;;;11.11;70.08;100924.34;5010666;28;20057;-80
2021/05/11 05:57:10;;;;;;;10.05;3.95;;;;;;;11.40;68.98;100943.66;5027061;28;20040;-79
2021/05/11 05:59:39;;;;;;;15.77;4.22;;;;;;;11.45;69.24;100944.72;5026709;28;20037;-76
2021/05/11 06:02:05;;;;;;;11.85;3.95;;;;;;;11.27;69.31;100913.81;5012210;28;20030;-79
2021/05/11 06:04:31;;;;;;;16.05;4.75;;;;;;;11.38;69.40;100916.84;5012312;28;20032;-75
2021/05/11 06:06:56;;;;;;;22.20;6.00;;;;;;;11.46;69.56;100930.09;5012010;28;20026;-77
2021/05/11 06:09:22;;;;;;;18.63;4.05;;;;;;;11.69;69.10;100943.97;5010450;28;20033;-75
2021/05/11 06:11:58;;;;;;;11.15;3.30;;;;;;;11.88;67.25;100934.34;5012060;28;20080;-77
2021/05/11 06:14:46;;;;;;;9.60;3.15;;;;;;;11.78;67.04;100933.97;5012154;28;20108;-76
2021/05/11 06:17:17;;;;;;;10.13;2.95;;;;;;;11.79;67.44;100929.69;5011749;28;20480;-77
2021/05/11 06:19:48;;;;;;;7.10;2.70;;;;;;;11.89;67.28;100943.88;5011595;28;20453;-77
2021/05/11 06:22:14;;;;;;;9.18;2.40;;;;;;;11.94;68.45;100935.44;5014846;28;20030;-75
2021/05/11 06:24:40;;;;;;;14.55;3.30;;;;;;;11.99;67.97;100948.59;5015620;28;20506;-76
2021/05/11 06:27:08;;;;;;;15.60;3.65;;;;;;;11.77;67.23;100893.38;5014354;28;20475;-78
2021/05/11 06:29:39;;;;;;;16.08;2.95;;;;;;;12.03;66.64;100890.09;5015866;28;20052;-79
2021/05/11 06:32:09;;;;;;;14.55;3.78;;;;;;;12.27;67.68;100928.94;5014185;28;20040;-76
2021/05/11 06:34:37;;;;;;;15.63;3.22;;;;;;;12.03;64.97;100884.91;5015905;28;20026;-81
2021/05/11 06:37:02;;;;;;;16.10;3.00;;;;;;;12.30;65.46;100908.34;5015897;28;20029;-80
2021/05/11 06:39:28;;;;;;;7.57;2.53;;;;;;;12.51;64.20;100917.72;5015562;28;20396;-80
2021/05/11 06:41:56;;;;;;;14.82;3.67;;;;;;;12.64;63.91;100912.16;5015581;28;20030;-79
2021/05/11 06:54:36;;;;;;;11.45;3.50;;;;;;;13.38;59.92;100912.13;5015584;28;20045;-77
2021/05/11 06:57:02;;;;;;;19.15;4.75;;;;;;;13.57;58.63;100907.50;5014000;28;20464;-81
2021/05/11 06:59:30;;;;;;;23.90;6.03;;;;;;;13.57;60.64;100903.22;5015084;28;20032;-82
2021/05/11 07:01:56;;;;;;;20.85;4.15;;;;;;;13.34;60.79;100875.63;5014969;28;20112;-82
2021/05/11 07:04:21;;;;;;;14.00;4.13;;;;;;;13.56;60.52;100892.78;5015646;28;20036;-77
2021/05/11 07:06:46;;;;;;;30.17;6.05;;;;;;;13.48;58.39;100847.56;5015320;28;20029;-78
2021/05/11 07:09:16;;;;;;;23.25;4.70;;;;;;;13.80;57.55;100876.22;5015151;28;20369;-76
2021/05/11 07:14:07;;;;;;;11.80;2.45;;;;;;;14.01;57.71;100887.22;5015279;28;20041;-81
2021/05/11 07:16:33;;;;;;;6.30;1.95;;;;;;;13.75;56.83;100891.63;5014539;28;20420;-76
2021/05/11 07:18:58;;;;;;;12.35;3.35;;;;;;;13.63;60.10;100880.88;5014534;28;20507;-81
2021/05/11 07:21:24;;;;;;;14.50;3.20;;;;;;;13.67;58.41;100888.81;5014962;28;20030;-76
2021/05/11 07:23:49;;;;;;;18.63;4.53;;;;;;;13.81;56.75;100859.81;5031648;28;20405;-80
2021/05/11 07:31:17;;;;;;;12.88;3.55;;;;;;;14.47;53.89;100879.88;5031909;28;20451;-77
2021/05/11 07:36:10;;;;;;;6.38;2.45;;;;;;;14.52;52.93;100878.28;5031804;28;20036;-78
2021/05/11 07:38:36;;;;;;;14.70;3.13;;;;;;;14.32;53.29;100862.16;5031686;28;20038;-76
2021/05/11 07:41:03;;;;;;;6.18;1.85;;;;;;;14.40;52.06;100872.75;5031474;28;20029;-75
2021/05/11 07:43:30;;;;;;;11.57;2.17;;;;;;;14.37;49.74;100849.31;5031557;28;20208;-80
2021/05/11 07:46:18;;;;;;;14.52;2.85;;;;;;;14.60;54.09;100862.88;5031680;28;20039;-81
2021/05/11 07:49:05;;;;;;;16.33;2.80;;;;;;;14.80;49.64;100873.84;5031211;28;20045;-81
2021/05/11 08:02:35;;;;;;;13.80;3.28;;;;;;;15.33;43.82;100862.16;5013970;28;20109;-79
2021/05/11 08:17:34;;;;;;;18.60;4.22;;;;;;;16.14;41.70;100833.59;5013688;28;20128;-77
2021/05/11 08:23:04;;;;;;;14.48;2.95;;;;;;;15.89;42.58;100819.16;5013750;28;20114;-77
2021/05/11 08:28:33;;;;;;;5.80;1.65;;;;;;;16.25;42.57;100832.06;4991679;28;20038;-81
2021/05/11 08:30:58;;;;;;;5.88;1.40;;;;;;;16.27;40.57;100811.25;4991344;28;20027;-78
2021/05/11 08:33:24;;;;;;;5.40;1.90;;;;;;;16.30;44.85;100804.38;4974879;28;20038;-81
2021/05/11 08:35:50;;;;;;;9.13;2.03;;;;;;;16.65;41.14;100822.38;4975256;28;20065;-81
2021/05/11 08:38:16;;;;;;;12.13;1.80;;;;;;;16.80;38.79;100821.75;4975112;28;20034;-79
2021/05/11 08:40:41;;;;;;;12.50;2.15;;;;;;;16.90;35.41;100825.41;4990882;28;20042;-81
2021/05/11 08:43:33;;;;;;;13.35;2.10;;;;;;;17.17;35.40;100825.84;4974575;28;20041;-81
2021/05/11 08:46:04;;;;;;;7.50;1.60;;;;;;;17.13;35.33;100827.53;4986491;28;20042;-80
2021/05/11 08:48:31;;;;;;;15.82;2.63;;;;;;;17.10;33.68;100824.88;4987256;28;20053;-80
2021/05/11 10:48:32;;;;;;;3.15;1.50;;;;;;;22.11;27.41;100682.25;4988766;28;20046;-75
2021/05/11 10:51:00;;;;;;;8.52;1.50;;;;;;;22.26;27.98;100690.00;4988122;28;20026;-77
2021/05/11 10:53:49;;;;;;;6.57;1.50;;;;;;;22.12;27.70;100687.50;4988130;28;20034;-78
2021/05/11 11:01:43;;;;;;;9.50;3.28;;;;;;;22.54;27.99;100671.41;4976626;28;20034;-74
2021/05/11 11:04:27;;;;;;;17.17;14.32;;;;;;;22.77;28.99;100670.31;4979645;28;20509;-74
2021/05/11 11:07:01;;;;;;;8.52;2.10;;;;;;;22.72;28.36;100667.72;4985849;28;20500;-77
2021/05/11 11:09:29;;;;;;;10.82;2.50;;;;;;;22.55;28.16;100664.38;4992333;28;20038;-77
2021/05/11 11:11:55;;;;;;;14.57;3.00;;;;;;;22.80;27.38;100664.13;5022585;28;20624;-76
2021/05/11 11:14:21;;;;;;;12.30;3.13;;;;;;;22.68;27.32;100650.22;5031394;28;20052;-76
2021/05/11 11:16:48;;;;;;;20.17;2.40;;;;;;;22.81;26.51;100653.59;5031549;28;20045;-77
2021/05/11 11:19:17;;;;;;;7.93;3.00;;;;;;;23.07;27.07;100655.06;5031482;28;20569;-77
2021/05/11 11:24:27;;;;;;;4.22;1.38;;;;;;;23.10;27.38;100637.47;5031617;28;20061;-77
2021/05/11 11:26:54;;;;;;;5.63;1.88;;;;;;;23.30;26.95;100649.53;5031330;28;20100;-76
2021/05/11 11:29:23;;;;;;;13.60;4.82;;;;;;;23.66;27.19;100646.41;5014402;28;20042;-78
2021/05/11 11:31:49;;;;;;;6.65;2.40;;;;;;;23.58;25.55;100636.84;5043064;28;20061;-78
2021/05/11 11:34:35;;;;;;;8.73;2.30;;;;;;;23.75;25.89;100631.34;5036532;28;20043;-76
2021/05/11 11:37:03;;;;;;;6.95;1.60;;;;;;;23.77;26.01;100638.38;5030612;28;20049;-76
2021/05/11 11:39:47;;;;;;;7.43;1.60;;;;;;;24.01;26.00;100629.22;5028635;28;20392;-73
2021/05/11 11:44:59;;;;;;;5.55;1.95;;;;;;;23.05;27.46;100612.97;5905410;22;20049;-75
2021/05/11 11:47:26;;;;;;;10.93;2.35;;;;;;;23.01;26.94;100616.50;5035254;28;20059;-74
2021/05/11 11:49:56;;;;;;;4.93;1.77;;;;;;;23.00;27.40;100621.78;5033361;28;20024;-75
2021/05/11 12:00:20;;;;;;;3.58;1.52;;;;;;;22.86;26.04;100583.31;5030270;28;20032;-75
2021/05/11 12:05:59;;;;;;;7.18;1.85;;;;;;;23.25;26.15;100572.31;5132618;22;20057;-77
2021/05/11 12:08:28;;;;;;;7.70;1.65;;;;;;;23.61;25.80;100566.56;5033533;28;20025;-76
2021/05/11 12:11:08;;;;;;;10.27;2.65;;;;;;;24.01;25.52;100568.56;5033360;28;20030;-76
2021/05/11 12:13:37;;;;;;;4.63;1.70;;;;;;;24.01;25.76;100585.28;5021468;28;20407;-79
2021/05/11 12:16:15;;;;;;;;;;;;;;;24.13;25.81;100599.16;5042541;28;20094;-79
2021/05/11 12:21:28;;;;;;;4.38;1.45;;;;;;;23.70;26.07;100591.00;5033109;28;20044;-79
2021/05/11 12:24:10;;;;;;;7.90;1.40;;;;;;;23.93;26.02;100581.03;5023658;28;20056;-77
2021/05/11 12:26:44;;;;;;;6.03;1.65;;;;;;;24.30;25.05;100573.31;5036579;28;20079;-77
2021/05/11 12:29:14;;;;;;;3.75;1.42;;;;;;;24.18;24.34;100571.78;5018995;28;20117;-76
2021/05/11 12:31:47;;;;;;;10.90;2.50;;;;;;;24.43;24.00;100566.03;5017876;28;20033;-78
2021/05/11 12:34:14;;;;;;;16.00;2.33;;;;;;;24.88;23.22;100562.53;5040580;28;20503;-76
2021/05/11 12:36:54;;;;;;;14.75;1.83;;;;;;;24.94;23.74;100558.91;5024085;28;20025;-76
2021/05/11 12:42:24;;;;;;;4.70;1.45;;;;;;;24.80;23.32;100504.63;5143470;22;20061;-78
2021/05/11 12:45:13;;;;;;;2.88;1.52;;;;;;;25.26;21.78;100550.28;5011985;28;20034;-78
2021/05/11 12:47:53;;;;;;;;;;;;;;;24.92;21.88;100545.72;5020207;28;20480;-76
2021/05/11 12:50:27;;;;;;;3.35;1.25;;;;;;;25.22;21.63;100543.31;5023895;28;19913;-78
2021/05/11 12:52:53;;;;;;;5.55;1.30;;;;;;;25.53;20.42;100529.41;5012141;28;20119;-77
2021/05/11 13:04:06;;;;;;;2.17;1.00;;;;;;;25.71;21.38;100517.53;5154208;23;20060;-79
2021/05/11 13:23:24;;;;;;;6.20;1.52;;;;;;;24.11;21.29;100503.34;5028820;28;20076;-77
2021/05/11 13:35:34;;;;;;;1.77;1.00;;;;;;;24.54;22.39;100487.53;5029413;28;20124;-77
2021/05/11 13:38:00;;;;;;;1.63;1.27;;;;;;;24.74;21.25;100485.41;5027813;28;20527;-80
2021/05/11 13:40:25;;;;;;;2.80;1.20;;;;;;;25.02;22.43;100459.25;5028861;28;20036;-80
2021/05/11 13:42:52;;;;;;;2.60;1.33;;;;;;;25.49;21.07;100473.09;5040119;28;20601;-77
2021/05/11 13:45:17;;;;;;;4.25;1.20;;;;;;;25.83;22.55;100466.97;5048736;28;20037;-78
2021/05/11 13:47:55;;;;;;;13.05;2.85;;;;;;;25.97;19.39;100444.53;5048373;28;20474;-79
2021/05/11 13:50:23;;;;;;;21.67;3.80;;;;;;;26.13;20.40;100447.66;5071625;28;20138;-78
2021/05/11 13:52:48;;;;;;;18.15;2.30;;;;;;;26.38;21.69;100455.81;5070369;28;20024;-78
2021/05/11 13:55:22;;;;;;;7.85;2.25;;;;;;;26.41;21.82;100450.41;5071956;28;20040;-79
2021/05/11 14:03:15;;;;;;;15.25;3.42;;;;;;;26.47;20.28;100444.94;5068135;28;20101;-80
2021/05/11 14:05:40;;;;;;;9.85;2.50;;;;;;;26.55;20.19;100449.13;5071431;28;20025;-80
2021/05/11 14:08:06;;;;;;;14.25;3.58;;;;;;;26.63;19.36;100439.16;5071359;28;20024;-79
2021/05/11 14:10:31;;;;;;;5.03;2.05;;;;;;;26.71;19.63;100444.25;5071118;28;20039;-79
2021/05/11 14:12:57;;;;;;;4.32;1.05;;;;;;;26.77;19.81;100436.16;5071152;28;20025;-79
2021/05/11 14:15:22;;;;;;;4.22;1.20;;;;;;;26.94;19.98;100444.44;5071298;28;20020;-80
2021/05/11 14:17:48;;;;;;;2.47;0.98;;;;;;;26.98;19.47;100441.66;5071204;28;20021;-79
2021/05/11 14:20:13;;;;;;;3.38;1.15;;;;;;;26.93;18.88;100436.50;5070890;28;20495;-79
2021/05/11 14:22:39;;;;;;;6.50;1.10;;;;;;;27.00;19.01;100427.44;5066879;28;20155;-79
2021/05/11 14:25:05;;;;;;;2.35;0.90;;;;;;;26.98;20.08;100408.13;5071240;28;20028;-80
2021/05/11 14:27:49;;;;;;;3.88;1.10;;;;;;;27.01;19.68;100437.13;5071253;28;20023;-79
2021/05/11 14:30:15;;;;;;;6.28;1.60;;;;;;;26.77;19.70;100410.50;5070382;28;20120;-79
2021/05/11 14:32:40;;;;;;;11.55;2.20;;;;;;;26.82;21.08;100381.25;5068278;28;20098;-81
2021/05/11 14:38:27;;;;;;;14.75;2.53;;;;;;;26.93;20.16;100418.84;5070877;28;20039;-80
2021/05/11 14:40:53;;;;;;;8.27;1.88;;;;;;;26.93;20.47;100413.53;5068738;28;20021;-80
2021/05/11 14:43:19;;;;;;;15.15;3.25;;;;;;;26.79;20.12;100418.41;5073547;28;20112;-78
2021/05/11 14:45:44;;;;;;;24.27;4.68;;;;;;;26.69;21.45;100404.53;5068177;28;20024;-78
2021/05/11 14:48:09;;;;;;;14.75;2.42;;;;;;;26.81;21.14;100403.34;5072508;28;20059;-76
2021/05/11 14:50:35;;;;;;;19.98;3.65;;;;;;;26.73;21.77;100377.06;5074677;28;20074;-78
2021/05/11 14:53:01;;;;;;;18.92;2.80;;;;;;;26.86;20.04;100396.09;5074214;28;20398;-76
2021/05/11 14:55:27;;;;;;;3.17;1.30;;;;;;;26.61;20.08;100406.59;5073769;28;20028;-77
2021/05/11 14:57:54;;;;;;;2.63;0.95;;;;;;;26.73;20.72;100410.63;5081753;28;20525;-80
2021/05/11 15:00:20;;;;;;;2.75;0.90;;;;;;;26.71;19.29;100410.66;5055425;28;20115;-76
2021/05/11 15:02:45;;;;;;;4.90;1.33;;;;;;;26.75;19.81;100416.78;5073338;28;20036;-77
2021/05/11 15:05:12;;;;;;;8.63;1.52;;;;;;;26.78;18.78;100411.38;5074111;28;20391;-78
2021/05/11 15:07:40;;;;;;;5.30;1.40;;;;;;;26.77;19.67;100397.28;5070968;28;20110;-77
2021/05/11 15:10:06;;;;;;;17.00;3.90;;;;;;;26.64;19.52;100385.28;5071897;28;20016;-78
2021/05/11 15:12:32;;;;;;;12.55;2.20;;;;;;;26.47;20.49;100399.06;5073985;28;20054;-79
2021/05/11 15:14:58;;;;;;;2.75;1.30;;;;;;;26.42;20.06;100390.41;5090108;28;20111;-77
2021/05/11 15:19:52;;;;;;;22.77;4.43;;;;;;;26.37;20.08;100384.34;5073808;28;20040;-78
2021/05/11 15:22:20;;;;;;;10.13;1.95;;;;;;;26.39;21.17;100390.47;5072580;28;20107;-78
2021/05/11 15:24:45;;;;;;;6.00;1.80;;;;;;;26.33;20.40;100365.06;5048519;28;20037;-78
2021/05/11 15:27:11;;;;;;;5.88;1.52;;;;;;;26.52;20.25;100375.97;5036859;28;20044;-79
2021/05/11 15:29:38;;;;;;;12.88;3.15;;;;;;;26.30;22.33;100373.09;5033321;28;20085;-78
2021/05/11 15:32:35;;;;;;;18.38;3.35;;;;;;;26.17;21.43;100367.31;5031994;28;20522;-78
2021/05/11 15:35:00;;;;;;;21.58;6.57;;;;;;;25.78;21.25;100356.94;5032243;28;20060;-78
2021/05/11 15:37:26;;;;;;;16.85;6.55;;;;;;;25.69;21.90;100368.63;5015642;28;20499;-79
2021/05/11 15:39:51;;;;;;;21.40;5.00;;;;;;;25.57;22.81;100356.63;5015495;28;20064;-78
2021/05/11 15:42:17;;;;;;;13.02;3.83;;;;;;;25.65;22.42;100359.06;5032401;28;20096;-78
2021/05/11 15:44:42;;;;;;;16.95;5.63;;;;;;;25.69;21.54;100368.63;5031839;28;20037;-77
2021/05/11 15:47:07;;;;;;;15.60;5.35;;;;;;;25.82;21.68;100361.22;5031995;28;20041;-77
2021/05/11 15:49:33;;;;;;;29.65;10.43;;;;;;;25.65;21.40;100344.03;5031924;28;20041;-79
2021/05/11 15:51:58;;;;;;;14.68;5.82;;;;;;;25.51;22.67;100320.63;5031941;28;20060;-77
2021/05/11 15:54:24;;;;;;;7.10;2.55;;;;;;;25.68;22.37;100356.31;5013855;28;20037;-79
2021/05/11 15:56:49;;;;;;;8.90;1.33;;;;;;;25.51;22.33;100362.06;5050735;28;20041;-77
2021/05/11 15:59:15;;;;;;;10.43;2.10;;;;;;;25.53;23.54;100362.88;5018442;28;20033;-78
2021/05/11 16:01:40;;;;;;;17.77;3.25;;;;;;;25.51;22.50;100338.28;5034663;28;20060;-77
2021/05/11 16:04:05;;;;;;;14.45;3.45;;;;;;;25.44;22.47;100356.06;5034934;28;20029;-76
2021/05/11 16:06:31;;;;;;;19.77;3.83;;;;;;;25.49;23.31;100353.31;5034930;28;20085;-79
2021/05/11 16:08:56;;;;;;;12.98;2.70;;;;;;;25.55;23.86;100349.66;5051499;28;20533;-77
2021/05/11 16:11:22;;;;;;;8.55;1.40;;;;;;;25.56;23.62;100365.47;5048962;28;20498;-80
2021/05/11 16:13:47;;;;;;;7.47;1.60;;;;;;;25.27;24.12;100315.97;5051080;28;20527;-76
2021/05/11 16:16:12;;;;;;;17.15;2.80;;;;;;;25.31;24.91;100358.16;5052281;28;20047;-78
2021/05/11 16:18:59;;;;;;;7.90;1.90;;;;;;;25.11;26.36;100368.34;5051038;28;20535;-76
2021/05/11 16:21:42;;;;;;;15.20;2.13;;;;;;;24.84;25.79;100331.16;5050588;28;20041;-78
2021/05/11 16:24:08;;;;;;;15.70;2.47;;;;;;;24.95;26.67;100365.22;5048774;28;20029;-78
2021/05/11 16:26:33;;;;;;;11.68;1.73;;;;;;;24.74;26.33;100329.66;5050173;28;20047;-76
2021/05/11 16:28:59;;;;;;;17.08;2.35;;;;;;;24.96;26.38;100362.56;5069957;28;20041;-75